Time;durP1;ratioP1;P1;durP2;ratioP2;P2;SDS_P1;SDS_P2;PMS_P1;PMS_P2;Temp;Humidity;BMP_temperature;BMP_pressure;BME280_temperature;BME280_humidity;BME280_pressure;Samples;Min_cycle;Max_cycle;Signal;HPM_P1;HPM_P2
2022/03/15 00:01:04;;;;;;;9.80;5.10;;;3.90;99.90;;;;;;4977808;28;20271;-81
2022/03/15 00:03:30;;;;;;;11.30;6.00;;;3.90;99.90;;;;;;4979438;28;20197;-80
2022/03/15 00:05:56;;;;;;;8.50;4.80;;;4.10;99.90;;;;;;4979464;28;20239;-81
2022/03/15 00:08:22;;;;;;;9.93;5.17;;;3.90;99.90;;;;;;4977336;28;20212;-81
2022/03/15 00:10:49;;;;;;;9.40;5.27;;;3.90;99.90;;;;;;4978140;28;20223;-81
2022/03/15 00:13:15;;;;;;;9.40;5.03;;;3.90;99.90;;;;;;4977187;28;20176;-81
2022/03/15 00:15:42;;;;;;;9.30;5.60;;;;;;;;;;4977988;28;20251;-81
2022/03/15 00:18:08;;;;;;;9.30;5.70;;;3.90;99.90;;;;;;4977215;28;20177;-80
2022/03/15 00:20:34;;;;;;;9.23;5.60;;;3.70;99.90;;;;;;4976577;28;20180;-81
2022/03/15 00:23:01;;;;;;;8.97;5.17;;;3.70;99.90;;;;;;4976365;28;20215;-81
2022/03/15 00:25:27;;;;;;;10.77;5.17;;;3.70;99.90;;;;;;4976856;28;20687;-81
2022/03/15 00:27:54;;;;;;;7.50;5.27;;;3.70;99.90;;;;;;4978042;28;20196;-81
2022/03/15 00:30:24;;;;;;;9.40;4.60;;;3.80;99.90;;;;;;4976461;28;20591;-80
2022/03/15 00:32:50;;;;;;;10.07;5.33;;;4.00;99.90;;;;;;4977911;28;20169;-81
2022/03/15 00:35:17;;;;;;;8.30;5.43;;;3.70;99.90;;;;;;4977669;28;20266;-81
2022/03/15 00:37:47;;;;;;;8.07;4.67;;;3.70;99.90;;;;;;4976334;28;20548;-81
2022/03/15 00:40:14;;;;;;;7.93;4.07;;;3.80;99.90;;;;;;4977456;28;20533;-80
2022/03/15 00:42:43;;;;;;;6.43;4.60;;;3.70;99.90;;;;;;4975677;28;20207;-81
2022/03/15 00:45:10;;;;;;;4.80;3.67;;;3.70;99.90;;;;;;4977558;28;20281;-80
2022/03/15 00:47:35;;;;;;;8.10;3.93;;;3.80;99.90;;;;;;4977084;28;20204;-81
2022/03/15 00:50:02;;;;;;;7.83;4.73;;;3.70;99.90;;;;;;4977454;28;20323;-80
2022/03/15 00:52:27;;;;;;;8.20;4.53;;;3.60;99.90;;;;;;4977284;28;20168;-81
2022/03/15 00:54:53;;;;;;;9.07;4.33;;;3.70;99.90;;;;;;4977119;28;20215;-80
2022/03/15 00:57:19;;;;;;;9.53;4.60;;;3.70;99.90;;;;;;4975896;28;20674;-80
2022/03/15 00:59:45;;;;;;;6.20;4.67;;;3.60;99.90;;;;;;4976807;28;20243;-80
2022/03/15 01:02:10;;;;;;;10.00;4.37;;;3.50;99.90;;;;;;4977886;28;20573;-80
2022/03/15 01:04:36;;;;;;;9.13;4.47;;;3.50;99.90;;;;;;4974823;28;20709;-80
2022/03/15 01:07:02;;;;;;;8.40;4.60;;;3.60;99.90;;;;;;4974466;28;20239;-80
2022/03/15 01:09:27;;;;;;;9.00;4.80;;;3.60;99.90;;;;;;4975181;28;20208;-80
2022/03/15 01:11:53;;;;;;;7.97;5.40;;;3.50;99.90;;;;;;4979649;28;20533;-80
2022/03/15 01:14:19;;;;;;;9.17;5.20;;;3.50;99.90;;;;;;4981382;28;20626;-81
2022/03/15 01:16:46;;;;;;;10.03;5.27;;;3.50;99.90;;;;;;4980200;28;20188;-81
2022/03/15 01:19:12;;;;;;;7.30;5.17;;;3.40;99.90;;;;;;4980876;28;20184;-80
2022/03/15 01:21:39;;;;;;;10.37;5.30;;;3.30;99.90;;;;;;4981030;28;20191;-80
2022/03/15 01:24:09;;;;;;;8.07;5.40;;;3.20;99.90;;;;;;4979272;28;20255;-81
2022/03/15 01:26:37;;;;;;;9.17;5.43;;;3.20;99.90;;;;;;4979291;28;20249;-80
2022/03/15 01:29:03;;;;;;;10.67;5.57;;;3.00;99.90;;;;;;4981188;28;20647;-80
2022/03/15 01:31:29;;;;;;;7.90;5.70;;;3.00;99.90;;;;;;4980772;28;20210;-80
2022/03/15 01:33:55;;;;;;;9.23;6.10;;;3.10;99.90;;;;;;4980577;28;20670;-81
2022/03/15 01:36:21;;;;;;;8.50;5.87;;;3.10;99.90;;;;;;4979683;28;20212;-80
2022/03/15 01:38:48;;;;;;;8.50;5.80;;;3.20;99.90;;;;;;4979612;28;20184;-81
2022/03/15 01:41:14;;;;;;;8.87;5.67;;;3.10;99.90;;;;;;4980636;28;20212;-81
2022/03/15 01:43:40;;;;;;;8.53;5.43;;;3.20;99.90;;;;;;4979164;28;20188;-81
2022/03/15 01:46:08;;;;;;;9.73;5.43;;;3.10;99.90;;;;;;4980688;28;20200;-80
2022/03/15 01:48:35;;;;;;;7.00;5.57;;;3.10;99.90;;;;;;4980645;28;20627;-80
2022/03/15 01:51:02;;;;;;;7.63;5.30;;;3.10;99.90;;;;;;4980722;28;20184;-81
2022/03/15 01:53:29;;;;;;;10.50;5.57;;;3.10;99.90;;;;;;4980507;28;20215;-81
2022/03/15 01:55:54;;;;;;;10.33;6.00;;;3.10;99.90;;;;;;4980166;28;20212;-81
2022/03/15 01:58:21;;;;;;;6.77;4.70;;;4.20;99.90;;;;;;4978864;28;20189;-81
2022/03/15 02:00:48;;;;;;;7.33;4.87;;;3.00;99.90;;;;;;4980111;28;20254;-80
2022/03/15 02:03:14;;;;;;;8.37;5.70;;;3.10;99.90;;;;;;4979518;28;20188;-81
2022/03/15 02:05:39;;;;;;;8.43;5.47;;;2.90;99.90;;;;;;4978894;28;20300;-81
2022/03/15 02:08:10;;;;;;;7.90;5.47;;;2.90;99.90;;;;;;4980762;28;20208;-81
2022/03/15 02:10:36;;;;;;;9.27;5.70;;;3.00;99.90;;;;;;4979252;28;20615;-81
2022/03/15 02:13:02;;;;;;;10.80;5.70;;;3.00;99.90;;;;;;4980937;28;20207;-81
2022/03/15 02:15:28;;;;;;;8.23;6.07;;;3.00;99.90;;;;;;4979433;28;20283;-81
2022/03/15 02:17:54;;;;;;;16.10;6.07;;;3.10;99.90;;;;;;4980334;28;20189;-81
2022/03/15 02:20:20;;;;;;;11.97;6.00;;;4.00;99.90;;;;;;4983100;28;20211;-81
2022/03/15 02:22:45;;;;;;;8.23;5.13;;;3.00;99.90;;;;;;4978831;28;20184;-81
2022/03/15 02:25:12;;;;;;;8.60;5.13;;;3.10;99.90;;;;;;4980319;28;20224;-80
2022/03/15 02:27:38;;;;;;;8.93;6.07;;;2.80;99.90;;;;;;4979909;28;20199;-81
2022/03/15 02:30:06;;;;;;;12.17;8.27;;;2.90;99.90;;;;;;4979311;28;20186;-81
2022/03/15 02:32:32;;;;;;;13.33;8.67;;;2.90;99.90;;;;;;4980472;28;20245;-80
2022/03/15 02:34:58;;;;;;;13.23;8.30;;;2.90;99.90;;;;;;4980827;28;20662;-81
2022/03/15 02:37:24;;;;;;;10.33;6.77;;;4.00;99.90;;;;;;4979697;28;20235;-81
2022/03/15 02:39:50;;;;;;;14.63;8.83;;;3.00;99.90;;;;;;4978399;28;20189;-80
2022/03/15 02:42:17;;;;;;;11.97;7.23;;;3.00;99.90;;;;;;4978697;28;20195;-80
2022/03/15 02:44:42;;;;;;;9.57;6.23;;;3.00;99.90;;;;;;4978456;28;20674;-81
2022/03/15 02:47:08;;;;;;;9.77;6.60;;;3.00;99.90;;;;;;4978077;28;20235;-81
2022/03/15 02:49:34;;;;;;;9.70;6.07;;;2.90;99.90;;;;;;4978339;28;20187;-81
2022/03/15 02:52:00;;;;;;;8.40;5.37;;;3.00;99.90;;;;;;4978280;28;20526;-81
2022/03/15 02:54:25;;;;;;;7.53;5.60;;;2.80;99.90;;;;;;4978002;28;20200;-80
2022/03/15 02:56:51;;;;;;;6.93;4.90;;;2.70;99.90;;;;;;4979956;28;20248;-80
2022/03/15 02:59:17;;;;;;;8.73;5.67;;;2.70;99.90;;;;;;4979930;28;20687;-80
2022/03/15 03:01:44;;;;;;;7.10;4.87;;;2.70;99.90;;;;;;4978200;28;20271;-81
2022/03/15 03:04:10;;;;;;;7.53;4.83;;;2.50;99.90;;;;;;4979543;28;20180;-81
2022/03/15 03:06:37;;;;;;;9.30;5.30;;;2.50;99.90;;;;;;4977876;28;20209;-81
2022/03/15 03:09:03;;;;;;;11.43;6.47;;;2.50;99.90;;;;;;4979299;28;20200;-80
2022/03/15 03:11:29;;;;;;;10.03;5.43;;;2.40;99.90;;;;;;4979465;28;20522;-81
2022/03/15 03:13:57;;;;;;;8.70;5.17;;;2.30;99.90;;;;;;4977567;28;20270;-81
2022/03/15 03:16:24;;;;;;;8.17;5.83;;;2.60;99.90;;;;;;4977916;28;20204;-81
2022/03/15 03:18:52;;;;;;;8.13;5.40;;;2.40;99.90;;;;;;4977722;28;20180;-81
2022/03/15 03:21:18;;;;;;;8.97;5.13;;;2.30;99.90;;;;;;4977880;28;20180;-80
2022/03/15 03:23:43;;;;;;;9.27;6.20;;;3.80;99.90;;;;;;4979388;28;20177;-81
2022/03/15 03:26:09;;;;;;;7.00;5.00;;;2.30;99.90;;;;;;4978103;28;20263;-82
2022/03/15 03:28:38;;;;;;;8.77;5.47;;;3.40;99.90;;;;;;4978254;28;21028;-81
2022/03/15 03:31:09;;;;;;;8.47;5.37;;;2.30;99.90;;;;;;4978613;28;20212;-80
2022/03/15 03:33:35;;;;;;;8.03;5.30;;;2.20;99.90;;;;;;4978400;28;20169;-81
2022/03/15 03:36:01;;;;;;;11.53;5.13;;;2.30;99.90;;;;;;4979676;28;20192;-81
2022/03/15 03:38:28;;;;;;;7.30;5.03;;;2.30;99.90;;;;;;4979814;28;20188;-80
2022/03/15 03:40:54;;;;;;;8.43;5.93;;;2.30;99.90;;;;;;4979757;28;20635;-81
2022/03/15 03:43:20;;;;;;;7.47;4.70;;;2.20;99.90;;;;;;4979710;28;20211;-81
2022/03/15 03:45:47;;;;;;;7.83;4.63;;;2.30;99.90;;;;;;4980403;28;20197;-81
2022/03/15 03:48:13;;;;;;;6.90;4.70;;;2.90;99.90;;;;;;4982522;28;20207;-81
2022/03/15 03:50:40;;;;;;;6.30;5.00;;;2.80;99.90;;;;;;4979613;28;20657;-81
2022/03/15 03:53:06;;;;;;;7.47;5.30;;;3.00;99.90;;;;;;4979466;28;20630;-81
2022/03/15 03:55:33;;;;;;;9.73;4.57;;;2.30;99.90;;;;;;4990985;28;20235;-80
2022/03/15 03:58:00;;;;;;;11.07;4.90;;;2.30;99.90;;;;;;4995699;28;20219;-80
2022/03/15 04:00:26;;;;;;;6.80;4.47;;;2.40;99.90;;;;;;4993087;28;20216;-81
2022/03/15 04:02:55;;;;;;;7.33;4.73;;;3.30;99.90;;;;;;4975861;28;20180;-81
2022/03/15 04:05:21;;;;;;;5.17;4.13;;;2.30;99.90;;;;;;4975638;28;20219;-81
2022/03/15 04:07:47;;;;;;;7.20;5.17;;;2.20;99.90;;;;;;4975165;28;20215;-82
2022/03/15 04:10:13;;;;;;;6.83;4.63;;;2.30;99.90;;;;;;4976141;28;20188;-81
2022/03/15 04:12:39;;;;;;;7.47;4.43;;;2.30;99.90;;;;;;4977255;28;20186;-82
2022/03/15 04:15:06;;;;;;;8.27;4.80;;;2.30;99.90;;;;;;4977393;28;20219;-81
2022/03/15 04:17:32;;;;;;;8.03;5.17;;;2.30;99.90;;;;;;4978501;28;20183;-82
2022/03/15 04:19:58;;;;;;;8.73;4.43;;;2.40;99.90;;;;;;4978990;28;20188;-81
2022/03/15 04:22:24;;;;;;;5.90;4.47;;;2.40;99.90;;;;;;4977436;28;20184;-82
2022/03/15 04:24:50;;;;;;;6.93;4.33;;;2.30;99.90;;;;;;4978467;28;20549;-82
2022/03/15 04:27:16;;;;;;;6.17;4.47;;;2.30;99.90;;;;;;4977645;28;20294;-82
2022/03/15 04:29:42;;;;;;;7.17;4.80;;;2.40;99.90;;;;;;4978893;28;20255;-81
2022/03/15 04:32:08;;;;;;;6.47;4.07;;;2.30;99.90;;;;;;4977484;28;20184;-82
2022/03/15 04:34:34;;;;;;;6.70;4.83;;;2.20;99.90;;;;;;4977848;28;21562;-81
2022/03/15 04:37:00;;;;;;;6.93;4.83;;;2.20;99.90;;;;;;4977511;28;20192;-82
2022/03/15 04:39:25;;;;;;;10.10;4.73;;;3.80;99.90;;;;;;4976595;28;20183;-81
2022/03/15 04:41:51;;;;;;;5.87;4.63;;;2.30;99.90;;;;;;4978769;28;20178;-82
2022/03/15 04:44:18;;;;;;;8.83;4.43;;;2.40;99.90;;;;;;4976630;28;20216;-82
2022/03/15 04:46:44;;;;;;;10.03;4.93;;;2.40;99.90;;;;;;4980493;28;20231;-81
2022/03/15 04:49:10;;;;;;;5.83;4.07;;;2.50;99.90;;;;;;4981474;28;20704;-82
2022/03/15 04:51:36;;;;;;;8.37;4.60;;;2.60;99.90;;;;;;4981659;28;20176;-81
2022/03/15 04:54:02;;;;;;;6.97;4.27;;;2.70;99.90;;;;;;4982021;28;20252;-82
2022/03/15 04:56:28;;;;;;;6.90;4.20;;;2.80;99.90;;;;;;4982414;28;20798;-81
2022/03/15 04:58:53;;;;;;;5.40;3.77;;;2.90;99.90;;;;;;4980976;28;20219;-82
2022/03/15 05:01:19;;;;;;;5.13;3.87;;;3.00;99.90;;;;;;4982695;28;20329;-82
2022/03/15 05:03:45;;;;;;;6.37;3.87;;;3.00;99.90;;;;;;4985255;28;20177;-82
2022/03/15 05:06:11;;;;;;;6.07;4.10;;;3.10;99.90;;;;;;4982534;28;20230;-82
2022/03/15 05:08:37;;;;;;;4.90;3.67;;;3.20;99.90;;;;;;4980716;28;20215;-82
2022/03/15 05:11:09;;;;;;;5.20;3.40;;;3.20;99.90;;;;;;4980928;28;20230;-82
2022/03/15 05:13:45;;;;;;;8.40;3.73;;;3.30;99.90;;;;;;4980332;28;20177;-83
2022/03/15 05:16:18;;;;;;;6.60;3.93;;;3.30;99.90;;;;;;4982165;28;20606;-82
2022/03/15 05:18:53;;;;;;;4.53;3.20;;;3.30;99.90;;;;;;4982254;28;20174;-82
2022/03/15 05:21:23;;;;;;;4.30;3.37;;;3.40;99.90;;;;;;4981009;28;20544;-82
2022/03/15 05:23:50;;;;;;;3.63;3.27;;;3.50;99.90;;;;;;4982204;28;20185;-82
2022/03/15 05:26:16;;;;;;;5.47;3.93;;;3.50;99.90;;;;;;4980468;28;20192;-82
2022/03/15 05:28:43;;;;;;;4.70;3.40;;;3.60;99.90;;;;;;4980438;28;20519;-82
2022/03/15 05:31:09;;;;;;;5.57;3.77;;;3.70;99.90;;;;;;4980813;28;20196;-82
2022/03/15 05:33:35;;;;;;;4.53;3.17;;;3.80;99.90;;;;;;4980538;28;20212;-82
2022/03/15 05:36:01;;;;;;;7.47;4.07;;;3.80;99.90;;;;;;4981896;28;20189;-82
2022/03/15 05:38:27;;;;;;;5.77;3.67;;;3.90;99.90;;;;;;4980664;28;20180;-82
2022/03/15 05:40:54;;;;;;;4.50;3.27;;;3.90;99.90;;;;;;4980533;28;20271;-82
2022/03/15 05:43:20;;;;;;;3.90;3.20;;;4.00;99.90;;;;;;4980327;28;20193;-82
2022/03/15 05:45:47;;;;;;;6.57;3.70;;;4.10;99.90;;;;;;4980209;28;20206;-82
2022/03/15 05:48:13;;;;;;;4.90;3.40;;;4.20;99.90;;;;;;4980649;28;20236;-82
2022/03/15 05:50:39;;;;;;;6.73;3.17;;;;;;;;;;4981056;28;20177;-83
2022/03/15 05:53:05;;;;;;;4.57;3.47;;;4.40;99.90;;;;;;4981494;28;20173;-83
2022/03/15 05:55:37;;;;;;;5.80;3.33;;;4.50;99.90;;;;;;4981868;28;20206;-82
2022/03/15 05:58:03;;;;;;;8.43;4.60;;;4.40;99.90;;;;;;4979859;28;20628;-82
2022/03/15 06:00:30;;;;;;;8.40;4.93;;;4.50;99.90;;;;;;4982701;28;20177;-82
2022/03/15 06:02:56;;;;;;;4.63;3.70;;;4.60;99.90;;;;;;4981378;28;20177;-82
2022/03/15 06:05:22;;;;;;;9.27;4.80;;;4.60;99.90;;;;;;4982573;28;20213;-83
2022/03/15 06:07:52;;;;;;;5.73;3.87;;;4.70;99.90;;;;;;4980723;28;20348;-82
2022/03/15 06:10:21;;;;;;;6.17;3.33;;;4.70;99.90;;;;;;4981188;28;20177;-83
2022/03/15 06:12:47;;;;;;;5.57;3.83;;;4.80;99.90;;;;;;4982840;28;20209;-82
2022/03/15 06:15:13;;;;;;;4.20;3.30;;;4.90;99.90;;;;;;4983319;28;20201;-81
2022/03/15 06:17:47;;;;;;;5.60;3.90;;;4.90;99.90;;;;;;4980260;28;20274;-82
2022/03/15 06:20:16;;;;;;;5.53;3.77;;;5.00;99.90;;;;;;4981829;28;20211;-82
2022/03/15 06:22:43;;;;;;;5.37;3.57;;;5.20;99.90;;;;;;4992802;28;20200;-82
2022/03/15 06:25:10;;;;;;;4.97;3.20;;;5.30;99.90;;;;;;5001047;28;20206;-81
2022/03/15 06:27:36;;;;;;;8.30;4.40;;;5.50;99.90;;;;;;4988144;28;20241;-82
2022/03/15 06:30:04;;;;;;;6.43;3.80;;;5.60;99.90;;;;;;4981578;28;20183;-82
2022/03/15 06:32:31;;;;;;;7.73;4.33;;;5.70;99.90;;;;;;4983074;28;20193;-81
2022/03/15 06:34:58;;;;;;;5.53;4.03;;;5.80;99.90;;;;;;4981918;28;20321;-82
2022/03/15 06:37:24;;;;;;;7.80;3.53;;;5.90;99.90;;;;;;4981117;28;20212;-82
2022/03/15 06:39:50;;;;;;;5.20;3.40;;;6.10;99.90;;;;;;4981151;28;20621;-82
2022/03/15 06:42:17;;;;;;;9.10;3.53;;;;;;;;;;4980113;28;20182;-82
2022/03/15 06:44:44;;;;;;;5.33;3.70;;;6.50;99.90;;;;;;4979402;28;20265;-82
2022/03/15 06:47:10;;;;;;;6.70;3.60;;;6.70;99.90;;;;;;4980467;28;20665;-82
2022/03/15 06:49:36;;;;;;;9.17;3.93;;;6.90;99.90;;;;;;4979636;28;20629;-82
2022/03/15 06:52:02;;;;;;;5.57;3.50;;;6.90;99.90;;;;;;4980474;28;20183;-82
2022/03/15 06:54:28;;;;;;;13.50;4.67;;;7.30;99.90;;;;;;4980169;28;20196;-82
2022/03/15 06:56:54;;;;;;;7.17;4.43;;;7.20;99.90;;;;;;4979825;28;20183;-82
2022/03/15 06:59:20;;;;;;;6.33;3.53;;;7.40;99.90;;;;;;4980345;28;20194;-83
2022/03/15 07:01:46;;;;;;;5.27;3.37;;;7.50;99.90;;;;;;4978674;28;20281;-83
2022/03/15 07:04:12;;;;;;;5.10;3.10;;;7.60;99.90;;;;;;4978094;28;20607;-82
2022/03/15 07:06:37;;;;;;;6.47;2.87;;;7.80;99.90;;;;;;4977710;28;20212;-82
2022/03/15 07:09:03;;;;;;;12.60;3.23;;;8.00;99.90;;;;;;4979425;28;20175;-85
2022/03/15 07:11:29;;;;;;;5.87;2.90;;;8.10;99.90;;;;;;4979197;28;20176;-83
2022/03/15 07:13:55;;;;;;;8.33;3.53;;;8.30;99.90;;;;;;4979838;28;20176;-83
2022/03/15 07:16:20;;;;;;;7.67;4.67;;;8.30;99.90;;;;;;4979330;28;20195;-83
2022/03/15 07:18:46;;;;;;;4.63;3.07;;;;;;;;;;4978278;28;20176;-82
2022/03/15 07:21:12;;;;;;;2.70;2.27;;;8.60;99.90;;;;;;4978390;28;20275;-83
2022/03/15 07:23:38;;;;;;;5.23;3.27;;;8.70;99.90;;;;;;4977392;28;20203;-82
2022/03/15 07:26:04;;;;;;;2.20;2.00;;;8.90;99.90;;;;;;4978577;28;20735;-83
2022/03/15 07:28:31;;;;;;;3.40;2.27;;;8.90;99.90;;;;;;4980625;28;20214;-83
2022/03/15 07:30:56;;;;;;;2.77;2.50;;;9.00;99.90;;;;;;4979774;28;20210;-82
2022/03/15 07:33:22;;;;;;;6.07;2.27;;;9.00;99.90;;;;;;4979663;28;20195;-82
2022/03/15 07:35:48;;;;;;;3.83;2.10;;;9.00;99.90;;;;;;4981110;28;20198;-83
2022/03/15 07:38:17;;;;;;;4.00;2.13;;;9.10;99.90;;;;;;4979710;28;20238;-83
2022/03/15 07:40:44;;;;;;;3.67;2.73;;;9.10;99.90;;;;;;4980889;28;20182;-83
2022/03/15 07:43:10;;;;;;;5.17;3.50;;;9.00;99.90;;;;;;4990827;28;20182;-82
2022/03/15 07:45:36;;;;;;;4.93;2.80;;;9.00;99.90;;;;;;4994100;28;20191;-82
2022/03/15 07:48:02;;;;;;;4.77;3.10;;;9.00;99.90;;;;;;4991295;28;20223;-82
2022/03/15 07:50:27;;;;;;;4.07;3.20;;;9.00;99.90;;;;;;4976872;28;20181;-83
2022/03/15 07:52:53;;;;;;;3.30;2.43;;;9.00;99.90;;;;;;4978865;28;20267;-83
2022/03/15 07:55:21;;;;;;;3.00;2.67;;;9.00;99.90;;;;;;4979789;28;20227;-82
2022/03/15 07:57:47;;;;;;;4.70;2.60;;;9.00;99.90;;;;;;4980026;28;20560;-83
2022/03/15 08:00:14;;;;;;;3.50;2.60;;;9.00;99.90;;;;;;4980410;28;20192;-83
2022/03/15 08:02:40;;;;;;;3.53;2.60;;;9.10;99.90;;;;;;4978666;28;20176;-83
2022/03/15 08:05:06;;;;;;;6.63;3.37;;;9.00;99.90;;;;;;4980085;28;20188;-83
2022/03/15 08:07:33;;;;;;;4.23;2.67;;;9.00;99.90;;;;;;4978931;28;20216;-83
2022/03/15 08:09:59;;;;;;;4.60;2.13;;;9.00;99.90;;;;;;4979514;28;20187;-83
2022/03/15 08:12:25;;;;;;;10.43;2.20;;;9.00;99.90;;;;;;4977808;28;20173;-82
2022/03/15 08:14:51;;;;;;;2.00;1.80;;;9.10;99.90;;;;;;4978684;28;20203;-83
2022/03/15 08:17:17;;;;;;;4.40;1.80;;;9.10;99.90;;;;;;4978879;28;20607;-83
2022/03/15 08:19:43;;;;;;;2.50;1.90;;;9.10;99.90;;;;;;4978682;28;20180;-83
2022/03/15 08:22:09;;;;;;;5.07;2.87;;;9.20;99.90;;;;;;4977971;28;20607;-83
2022/03/15 08:24:34;;;;;;;2.13;1.93;;;9.30;99.90;;;;;;4978719;28;20208;-83
2022/03/15 08:27:00;;;;;;;3.57;2.00;;;9.30;99.90;;;;;;4978879;28;20218;-83
2022/03/15 08:29:26;;;;;;;28.73;12.23;;;9.40;99.90;;;;;;4979700;28;20330;-83
2022/03/15 08:31:52;;;;;;;7.07;3.90;;;9.40;99.90;;;;;;4979604;28;20183;-83
2022/03/15 08:34:18;;;;;;;3.53;2.60;;;9.40;99.90;;;;;;4979398;28;20180;-83
2022/03/15 08:36:44;;;;;;;13.37;6.77;;;9.40;99.90;;;;;;4980958;28;20280;-83
2022/03/15 08:39:10;;;;;;;3.57;2.43;;;9.40;99.90;;;;;;4979898;28;20180;-83
2022/03/15 08:41:35;;;;;;;2.80;2.43;;;9.50;99.90;;;;;;4979658;28;20219;-83
2022/03/15 08:44:01;;;;;;;7.27;4.93;;;;;;;;;;4981070;28;20555;-83
2022/03/15 08:46:27;;;;;;;3.87;2.80;;;9.50;99.90;;;;;;4980677;28;20290;-83
2022/03/15 08:48:54;;;;;;;8.43;2.30;;;9.60;99.90;;;;;;4981175;28;20168;-83
2022/03/15 08:51:20;;;;;;;5.30;3.93;;;9.60;99.90;;;;;;4980290;28;20172;-83
2022/03/15 08:53:46;;;;;;;3.13;2.50;;;9.60;99.90;;;;;;4978698;28;20180;-83
2022/03/15 08:56:12;;;;;;;6.77;4.37;;;9.60;99.90;;;;;;4979106;28;20230;-83
2022/03/15 08:58:38;;;;;;;9.73;6.23;;;9.60;99.90;;;;;;4979314;28;20172;-83
2022/03/15 09:01:04;;;;;;;13.57;8.13;;;9.60;99.90;;;;;;4977821;28;20184;-83
2022/03/15 09:03:29;;;;;;;5.30;4.10;;;9.60;99.90;;;;;;4977578;28;20184;-83
2022/03/15 09:05:55;;;;;;;5.60;4.40;;;9.50;99.90;;;;;;4979582;28;20232;-83
2022/03/15 09:08:21;;;;;;;3.70;2.40;;;9.50;99.90;;;;;;4978904;28;20211;-83
2022/03/15 09:10:48;;;;;;;2.97;2.03;;;;;;;;;;4978776;28;20183;-83
2022/03/15 09:13:13;;;;;;;3.97;3.47;;;9.50;99.90;;;;;;4979968;28;20177;-83
2022/03/15 09:15:40;;;;;;;2.63;2.00;;;9.50;99.90;;;;;;4977690;28;20204;-83
2022/03/15 09:18:07;;;;;;;4.27;2.30;;;9.50;99.90;;;;;;4978427;28;20180;-84
2022/03/15 09:20:32;;;;;;;4.50;2.10;;;9.60;99.90;;;;;;4978877;28;20667;-83
2022/03/15 09:22:58;;;;;;;7.30;2.10;;;9.60;99.90;;;;;;4977967;28;20184;-82
2022/03/15 09:25:24;;;;;;;5.03;2.73;;;9.50;99.90;;;;;;4977857;28;20591;-83
2022/03/15 09:27:50;;;;;;;6.13;2.57;;;9.50;99.90;;;;;;4979159;28;20221;-81
2022/03/15 09:30:17;;;;;;;3.33;2.17;;;9.60;99.90;;;;;;4982083;28;20224;-82
2022/03/15 09:32:43;;;;;;;5.40;2.37;;;9.60;99.90;;;;;;4993836;28;20222;-80
2022/03/15 09:35:09;;;;;;;2.20;2.00;;;9.60;99.90;;;;;;4996335;28;20231;-81
2022/03/15 09:37:35;;;;;;;4.40;2.23;;;9.60;99.90;;;;;;4992747;28;20183;-81
2022/03/15 09:40:01;;;;;;;7.17;2.17;;;9.60;99.90;;;;;;4978674;28;20184;-81
2022/03/15 09:42:29;;;;;;;3.63;2.17;;;9.70;99.90;;;;;;4978114;28;20191;-81
2022/03/15 09:44:57;;;;;;;4.17;2.33;;;9.60;99.90;;;;;;4978085;28;20203;-81
2022/03/15 09:47:31;;;;;;;5.53;2.60;;;9.70;99.90;;;;;;4978320;28;20212;-81
2022/03/15 09:49:59;;;;;;;4.03;2.80;;;9.70;99.90;;;;;;4978232;28;20186;-81
2022/03/15 09:52:27;;;;;;;4.97;2.60;;;9.70;99.90;;;;;;4978859;28;20251;-81
2022/03/15 09:54:54;;;;;;;8.87;3.00;;;9.70;99.90;;;;;;4977536;28;20223;-82
2022/03/15 09:57:21;;;;;;;5.27;2.80;;;9.70;99.90;;;;;;4977106;28;20192;-82
2022/03/15 09:59:50;;;;;;;9.23;3.53;;;9.60;99.90;;;;;;4976921;28;20184;-82
2022/03/15 10:02:16;;;;;;;6.50;3.43;;;9.60;99.90;;;;;;4981098;28;20258;-81
2022/03/15 10:04:42;;;;;;;10.47;3.10;;;9.50;99.90;;;;;;4979758;28;20203;-82
2022/03/15 10:07:08;;;;;;;6.17;2.90;;;9.50;99.90;;;;;;4978313;28;20570;-81
2022/03/15 10:09:34;;;;;;;4.53;3.33;;;9.40;99.90;;;;;;4978497;28;20275;-81
2022/03/15 10:12:01;;;;;;;10.93;4.80;;;9.50;99.90;;;;;;4978870;28;20183;-81
2022/03/15 10:14:27;;;;;;;6.37;3.20;;;9.50;99.90;;;;;;4978149;28;20176;-81
2022/03/15 10:17:01;;;;;;;18.47;4.90;;;9.40;99.90;;;;;;4979460;28;20227;-82
2022/03/15 10:19:29;;;;;;;8.23;3.50;;;9.40;99.90;;;;;;4980106;28;20171;-81
2022/03/15 10:21:56;;;;;;;6.63;3.47;;;9.30;99.90;;;;;;4978770;28;20180;-81
2022/03/15 10:24:27;;;;;;;5.70;3.50;;;9.30;99.90;;;;;;4979833;28;20176;-82
2022/03/15 10:27:00;;;;;;;9.13;3.03;;;9.30;99.90;;;;;;4979765;28;20271;-81
2022/03/15 10:29:28;;;;;;;5.90;2.70;;;9.30;99.90;;;;;;4978133;28;20547;-81
2022/03/15 10:31:54;;;;;;;6.13;3.03;;;9.30;99.90;;;;;;4978265;28;20185;-81
2022/03/15 10:34:22;;;;;;;4.13;2.77;;;9.30;99.90;;;;;;4978288;28;20180;-81
2022/03/15 10:36:53;;;;;;;6.40;2.87;;;9.30;99.90;;;;;;4979716;28;20663;-81
2022/03/15 10:39:19;;;;;;;6.47;3.00;;;9.20;99.90;;;;;;4981461;28;20171;-81
2022/03/15 10:41:54;;;;;;;6.50;3.50;;;9.20;99.90;;;;;;4978777;28;20180;-81
2022/03/15 10:44:24;;;;;;;10.73;4.00;;;9.30;99.90;;;;;;4979181;28;20167;-81
2022/03/15 10:47:02;;;;;;;6.83;3.50;;;9.30;99.90;;;;;;4980808;28;20230;-81
2022/03/15 10:49:29;;;;;;;6.57;3.63;;;9.30;99.90;;;;;;4979240;28;20630;-81
2022/03/15 10:51:54;;;;;;;8.80;3.50;;;9.40;99.90;;;;;;4979275;28;20669;-81
2022/03/15 10:54:27;;;;;;;6.33;3.50;;;9.50;99.90;;;;;;4978916;28;20180;-81
2022/03/15 10:56:59;;;;;;;9.63;4.60;;;9.50;99.90;;;;;;4980562;28;20184;-82
2022/03/15 10:59:25;;;;;;;9.83;4.67;;;9.50;99.90;;;;;;4980567;28;20207;-81
2022/03/15 11:01:51;;;;;;;7.13;3.87;;;9.50;99.90;;;;;;4980243;28;20209;-81
2022/03/15 11:04:18;;;;;;;6.27;2.60;;;9.50;99.90;;;;;;4980560;28;20536;-81
2022/03/15 11:06:46;;;;;;;7.37;4.00;;;9.50;99.90;;;;;;4979489;28;20293;-81
2022/03/15 11:09:32;;;;;;;4.67;2.80;;;9.50;99.90;;;;;;4982370;28;20176;-81
2022/03/15 11:12:06;;;;;;;3.47;2.70;;;9.50;99.90;;;;;;4981843;28;20164;-80
2022/03/15 11:14:59;;;;;;;5.07;3.30;;;9.60;99.90;;;;;;4980093;28;20164;-81
2022/03/15 11:17:26;;;;;;;3.67;2.83;;;9.60;99.90;;;;;;4977629;28;20184;-81
2022/03/15 11:19:55;;;;;;;9.37;3.67;;;9.70;99.90;;;;;;4978409;28;20182;-81
2022/03/15 11:22:23;;;;;;;5.80;3.77;;;9.80;99.90;;;;;;4978376;28;20187;-82
2022/03/15 11:25:08;;;;;;;4.53;3.00;;;9.90;99.90;;;;;;4977668;28;20200;-81
2022/03/15 11:27:40;;;;;;;7.37;3.00;;;10.00;99.90;;;;;;4977773;28;20188;-81
2022/03/15 11:30:08;;;;;;;7.23;2.90;;;10.00;99.90;;;;;;4976812;28;20168;-81
2022/03/15 11:32:34;;;;;;;5.27;2.70;;;10.10;99.90;;;;;;4977817;28;20199;-81
2022/03/15 11:35:01;;;;;;;7.10;2.90;;;10.00;99.90;;;;;;4976125;28;20250;-82
2022/03/15 11:37:27;;;;;;;4.90;3.30;;;9.90;99.90;;;;;;4976954;28;20550;-82
2022/03/15 11:39:53;;;;;;;5.27;2.70;;;9.90;99.90;;;;;;4978156;28;20204;-81
2022/03/15 11:42:19;;;;;;;5.17;2.60;;;9.80;99.90;;;;;;4977043;28;20267;-81
2022/03/15 11:45:07;;;;;;;4.33;2.80;;;9.80;99.90;;;;;;4977475;28;20658;-82
2022/03/15 11:47:37;;;;;;;5.40;2.73;;;9.80;99.90;;;;;;4976907;28;20211;-81
2022/03/15 11:50:10;;;;;;;3.87;2.57;;;9.90;99.90;;;;;;4979681;28;20169;-81
2022/03/15 11:52:49;;;;;;;7.63;3.43;;;9.90;99.90;;;;;;4980475;28;20180;-82
2022/03/15 11:55:49;;;;;;;6.97;2.73;;;9.90;99.90;;;;;;4979308;28;20212;-82
2022/03/15 11:58:30;;;;;;;7.47;3.10;;;9.80;99.90;;;;;;4975793;28;20243;-81
2022/03/15 12:01:07;;;;;;;5.33;3.03;;;9.80;99.90;;;;;;4979641;28;20176;-81
2022/03/15 12:03:43;;;;;;;5.43;3.20;;;9.70;99.90;;;;;;4979446;28;20704;-81
2022/03/15 12:06:27;;;;;;;4.97;3.20;;;9.70;99.90;;;;;;4978540;28;20211;-83
2022/03/15 12:08:55;;;;;;;6.40;3.13;;;9.80;99.90;;;;;;4980394;28;20148;-82
2022/03/15 12:11:33;;;;;;;8.50;4.13;;;9.80;99.90;;;;;;4981225;28;20172;-83
2022/03/15 12:14:13;;;;;;;7.03;3.27;;;9.80;99.90;;;;;;4983500;28;20164;-83
2022/03/15 12:16:47;;;;;;;4.67;3.10;;;9.80;99.90;;;;;;4983962;28;20187;-84
2022/03/15 12:21:56;;;;;;;6.73;3.13;;;9.90;99.90;;;;;;4985897;28;20541;-84
2022/03/15 12:24:34;;;;;;;8.80;2.90;;;10.00;99.90;;;;;;4984912;28;20184;-84
2022/03/15 12:27:08;;;;;;;5.33;2.77;;;10.00;99.90;;;;;;4984604;28;20299;-84
2022/03/15 12:29:36;;;;;;;4.37;3.07;;;10.00;99.90;;;;;;4985048;28;20160;-84
2022/03/15 12:32:18;;;;;;;5.27;3.00;;;10.00;99.90;;;;;;4984630;28;20168;-84
2022/03/15 12:34:45;;;;;;;5.53;2.97;;;9.90;99.90;;;;;;4984183;28;20199;-84
2022/03/15 12:37:12;;;;;;;5.63;2.50;;;9.90;99.90;;;;;;4984124;28;20180;-84
2022/03/15 12:39:38;;;;;;;5.63;2.57;;;9.90;99.90;;;;;;4984194;28;20231;-84
2022/03/15 12:42:07;;;;;;;3.80;3.07;;;9.90;99.90;;;;;;4983702;28;20196;-83
2022/03/15 12:45:04;;;;;;;4.07;3.07;;;9.90;99.90;;;;;;4992318;28;20237;-83
2022/03/15 12:47:32;;;;;;;5.33;3.10;;;9.80;99.90;;;;;;4982501;28;20211;-83
2022/03/15 12:50:13;;;;;;;5.80;3.00;;;9.80;99.90;;;;;;4980036;28;20702;-83
2022/03/15 12:52:53;;;;;;;5.83;3.20;;;9.80;99.90;;;;;;4978947;28;20196;-83
2022/03/15 12:55:27;;;;;;;7.70;3.10;;;9.70;99.90;;;;;;4977186;28;20219;-82
2022/03/15 12:57:59;;;;;;;3.63;3.33;;;9.70;99.90;;;;;;4976839;28;20188;-82
2022/03/15 13:00:27;;;;;;;5.80;3.40;;;9.70;99.90;;;;;;4980153;28;20176;-81
2022/03/15 13:02:55;;;;;;;7.13;3.70;;;9.70;99.90;;;;;;4979071;28;20188;-82